Time;durP1;ratioP1;P1;durP2;ratioP2;P2;SDS_P1;SDS_P2;PMS_P1;PMS_P2;Temp;Humidity;BMP_temperature;BMP_pressure;BME280_temperature;BME280_humidity;BME280_pressure;Samples;Min_cycle;Max_cycle;Signal;HPM_P1;HPM_P2
2021/05/27 00:02:34;;;;;;;6.15;4.65;;;9.40;99.90;;;;;;12383003;28;20606;-39
2021/05/27 00:08:36;;;;;;;6.78;5.18;;;9.40;99.90;;;;;;12388854;28;20049;-39
2021/05/27 00:14:38;;;;;;;6.80;5.15;;;9.30;99.90;;;;;;12385747;28;20141;-40
2021/05/27 00:20:40;;;;;;;7.18;5.47;;;9.30;99.90;;;;;;12393497;28;20149;-39
2021/05/27 00:26:42;;;;;;;7.43;5.45;;;9.40;99.90;;;;;;12393244;28;20470;-39
2021/05/27 00:32:46;;;;;;;7.78;5.65;;;9.40;99.90;;;;;;12388053;28;20050;-39
2021/05/27 00:38:50;;;;;;;8.57;6.45;;;9.50;99.90;;;;;;12389650;28;20061;-39
2021/05/27 00:45:06;;;;;;;6.77;6.07;;;9.50;99.90;;;;;;12395076;28;20050;-40
2021/05/27 00:51:08;;;;;;;8.13;5.10;;;9.50;99.90;;;;;;12384781;28;20046;-39
2021/05/27 00:57:17;;;;;;;7.35;5.00;;;9.70;99.90;;;;;;12384116;28;20593;-39
2021/05/27 01:03:19;;;;;;;6.00;4.43;;;9.70;99.90;;;;;;12386816;28;20080;-39
2021/05/27 01:09:21;;;;;;;6.15;4.18;;;9.70;99.90;;;;;;12388464;28;20056;-39
2021/05/27 01:15:30;;;;;;;6.72;4.07;;;9.70;99.90;;;;;;12390737;28;20116;-39
2021/05/27 01:21:33;;;;;;;5.20;3.85;;;9.70;99.90;;;;;;12393821;28;21142;-39
2021/05/27 01:27:36;;;;;;;7.53;3.90;;;9.70;99.90;;;;;;12386957;28;20058;-39
2021/05/27 01:33:38;;;;;;;6.25;3.53;;;9.50;99.90;;;;;;12383196;28;21094;-40
2021/05/27 01:39:45;;;;;;;5.13;3.15;;;9.70;99.90;;;;;;12385480;28;20571;-40
2021/05/27 01:45:48;;;;;;;4.57;2.63;;;9.50;99.90;;;;;;12384075;28;20050;-39
2021/05/27 01:51:50;;;;;;;3.75;2.60;;;9.60;99.90;;;;;;12385568;28;20626;-39
2021/05/27 01:57:52;;;;;;;3.83;2.80;;;9.40;99.90;;;;;;12386160;28;20057;-39
2021/05/27 02:03:54;;;;;;;3.20;2.10;;;9.30;99.90;;;;;;12386432;28;20457;-39
2021/05/27 02:09:56;;;;;;;4.50;2.10;;;9.60;99.90;;;;;;12388857;28;20429;-39
2021/05/27 02:15:58;;;;;;;4.28;1.60;;;9.30;99.90;;;;;;12382978;28;20046;-40
2021/05/27 02:21:59;;;;;;;2.63;1.20;;;9.30;99.90;;;;;;12385934;28;20104;-39
2021/05/27 02:28:01;;;;;;;2.22;1.20;;;9.40;99.90;;;;;;12388655;28;20379;-39
2021/05/27 02:34:03;;;;;;;2.40;1.30;;;9.40;99.90;;;;;;12388232;28;20115;-39
2021/05/27 02:40:06;;;;;;;1.95;1.50;;;9.30;99.90;;;;;;12386937;28;20078;-39
2021/05/27 02:46:08;;;;;;;3.00;1.92;;;9.10;99.90;;;;;;12385347;28;20050;-39
2021/05/27 02:52:24;;;;;;;3.38;2.25;;;9.20;99.90;;;;;;12381996;28;20062;-39
2021/05/27 02:58:26;;;;;;;5.47;2.85;;;9.10;99.90;;;;;;12382666;28;20350;-39
2021/05/27 03:04:27;;;;;;;4.90;3.38;;;9.00;99.90;;;;;;12392034;28;20050;-38
2021/05/27 03:10:29;;;;;;;6.20;3.28;;;8.90;99.90;;;;;;12386662;28;20574;-39
2021/05/27 03:16:31;;;;;;;4.13;3.38;;;9.00;99.90;;;;;;12386221;28;20447;-39
2021/05/27 03:22:33;;;;;;;4.32;2.80;;;9.00;99.90;;;;;;12388577;28;20045;-39
2021/05/27 03:28:35;;;;;;;4.10;2.70;;;9.00;99.90;;;;;;12388135;28;20091;-39
2021/05/27 03:34:37;;;;;;;3.80;2.35;;;9.40;99.90;;;;;;12379522;28;20139;-39
2021/05/27 03:40:38;;;;;;;5.10;2.70;;;9.50;99.90;;;;;;12386532;28;20054;-38
2021/05/27 03:46:40;;;;;;;3.17;2.50;;;9.60;99.90;;;;;;12380938;28;20058;-39
2021/05/27 03:52:43;;;;;;;3.30;2.40;;;9.50;99.90;;;;;;12386234;28;20058;-39
2021/05/27 04:11:25;;;;;;;5.20;2.55;;;9.40;99.90;;;;;;12378089;28;20119;-39
2021/05/27 04:17:27;;;;;;;4.47;2.30;;;9.40;99.90;;;;;;12379708;28;20960;-39
2021/05/27 04:23:36;;;;;;;4.07;2.45;;;9.50;99.90;;;;;;12375903;28;20096;-39
2021/05/27 04:29:38;;;;;;;4.65;2.38;;;9.40;99.90;;;;;;12384199;28;20440;-39
2021/05/27 04:35:45;;;;;;;2.78;2.00;;;9.50;99.90;;;;;;12375448;28;20046;-39
2021/05/27 04:41:47;;;;;;;4.45;2.17;;;9.50;99.90;;;;;;12378403;28;20112;-39
2021/05/27 04:47:49;;;;;;;4.43;2.20;;;9.50;99.90;;;;;;12383133;28;20461;-39
2021/05/27 04:53:51;;;;;;;3.30;2.45;;;9.50;99.90;;;;;;12367169;28;20056;-39
2021/05/27 04:59:53;;;;;;;4.47;3.00;;;9.50;99.90;;;;;;12381476;28;20072;-39
2021/05/27 05:05:55;;;;;;;4.75;2.65;;;9.20;99.90;;;;;;12391688;28;20141;-39
2021/05/27 05:11:57;;;;;;;3.80;2.40;;;9.30;99.90;;;;;;12372093;28;20056;-39
2021/05/27 05:18:04;;;;;;;3.90;2.50;;;9.40;99.90;;;;;;12385141;28;20057;-39
2021/05/27 05:24:07;;;;;;;3.22;2.28;;;9.40;99.90;;;;;;12378412;28;20054;-40
2021/05/27 05:30:10;;;;;;;3.95;2.08;;;9.30;99.90;;;;;;12389746;28;20053;-39
2021/05/27 05:36:12;;;;;;;3.35;2.33;;;9.40;99.90;;;;;;12381484;28;20578;-39
2021/05/27 05:42:14;;;;;;;4.15;2.42;;;9.40;99.90;;;;;;12382310;28;20038;-39
2021/05/27 05:48:16;;;;;;;3.30;2.30;;;9.60;99.90;;;;;;12378241;28;20049;-39
2021/05/27 05:54:18;;;;;;;4.28;2.53;;;9.50;99.90;;;;;;12380539;28;20107;-39
2021/05/27 06:00:20;;;;;;;4.05;2.55;;;9.60;99.90;;;;;;12382220;28;20057;-39
2021/05/27 06:06:22;;;;;;;4.15;2.95;;;9.50;99.90;;;;;;12383341;28;20131;-39
2021/05/27 06:12:24;;;;;;;5.85;2.97;;;9.60;99.90;;;;;;12379637;28;20050;-39
2021/05/27 06:18:26;;;;;;;4.97;3.00;;;9.70;99.90;;;;;;12371927;28;20135;-39
2021/05/27 06:24:30;;;;;;;;;;;9.60;99.90;;;;;;12379590;28;20050;-40
2021/05/27 06:30:33;;;;;;;5.05;3.28;;;9.70;99.90;;;;;;12379110;28;20333;-39
2021/05/27 06:36:35;;;;;;;4.35;2.80;;;9.70;99.90;;;;;;12384733;28;20184;-39
2021/05/27 06:42:37;;;;;;;3.97;2.38;;;9.70;99.90;;;;;;12377647;28;20979;-39
2021/05/27 06:48:40;;;;;;;3.47;1.95;;;9.70;99.90;;;;;;12379551;28;20694;-39
2021/05/27 06:54:42;;;;;;;3.60;2.20;;;9.80;99.90;;;;;;12367485;28;20054;-39
2021/05/27 07:00:44;;;;;;;4.38;2.30;;;9.80;99.90;;;;;;12379658;28;20054;-39
2021/05/27 07:06:45;;;;;;;3.42;2.25;;;9.80;99.90;;;;;;12376988;28;20057;-39
2021/05/27 07:12:55;;;;;;;2.20;1.42;;;9.80;99.90;;;;;;12378905;28;20141;-39
2021/05/27 07:18:57;;;;;;;3.40;1.80;;;9.90;99.90;;;;;;12380779;28;20058;-39
2021/05/27 07:24:59;;;;;;;3.83;1.92;;;9.90;99.90;;;;;;12380131;28;20046;-40
2021/05/27 07:31:01;;;;;;;2.75;1.90;;;9.80;99.90;;;;;;12384003;28;20053;-39
2021/05/27 07:37:03;;;;;;;3.08;2.10;;;9.80;99.90;;;;;;12383560;28;20181;-39
2021/05/27 07:43:05;;;;;;;3.20;1.92;;;9.80;99.90;;;;;;12381347;28;20486;-39
2021/05/27 07:49:07;;;;;;;3.75;2.10;;;10.00;99.90;;;;;;12381837;28;20054;-39
2021/05/27 07:55:10;;;;;;;4.68;2.20;;;10.10;99.90;;;;;;12374002;28;20064;-40
2021/05/27 08:01:13;;;;;;;3.75;2.17;;;10.30;99.90;;;;;;12380052;28;20058;-38
2021/05/27 08:07:15;;;;;;;3.97;2.53;;;10.20;99.90;;;;;;12380350;28;20150;-40
2021/05/27 08:13:20;;;;;;;;;;;10.40;99.90;;;;;;12375868;28;20165;-39
2021/05/27 08:19:22;;;;;;;4.65;2.20;;;10.40;99.90;;;;;;12382862;28;19929;-40
2021/05/27 08:25:24;;;;;;;3.53;2.42;;;10.30;99.90;;;;;;12379543;28;20046;-39
2021/05/27 08:31:25;;;;;;;4.03;2.25;;;10.40;99.90;;;;;;12380271;28;20498;-39
2021/05/27 08:37:27;;;;;;;3.53;2.33;;;10.50;99.90;;;;;;12379067;28;20100;-41
2021/05/27 08:43:32;;;;;;;4.78;2.17;;;10.50;99.90;;;;;;12388519;28;20088;-39
2021/05/27 08:49:37;;;;;;;;;;;10.50;99.90;;;;;;12394142;28;20141;-39
2021/05/27 08:55:39;;;;;;;;;;;10.50;99.90;;;;;;12376646;28;19947;-38
2021/05/27 09:02:00;;;;;;;3.05;1.95;;;10.40;99.90;;;;;;12385710;28;19925;-38
2021/05/27 09:08:03;;;;;;;6.05;2.00;;;10.50;99.90;;;;;;12388337;28;20049;-39
2021/05/27 09:14:05;;;;;;;4.15;2.20;;;10.60;99.90;;;;;;12388400;28;20054;-39
2021/05/27 09:20:13;;;;;;;4.15;2.10;;;10.30;99.90;;;;;;12389738;28;20050;-38
2021/05/27 09:26:16;;;;;;;3.90;1.90;;;10.40;99.90;;;;;;12389059;28;20054;-39
2021/05/27 09:32:20;;;;;;;3.65;1.90;;;10.50;99.90;;;;;;12390699;28;21156;-39
2021/05/27 09:38:27;;;;;;;3.22;1.73;;;10.60;99.90;;;;;;12387024;28;20053;-39
2021/05/27 09:44:29;;;;;;;3.50;1.80;;;10.70;99.90;;;;;;12388721;28;20521;-39
2021/05/27 09:50:40;;;;;;;3.80;1.70;;;10.90;99.90;;;;;;12385787;28;20048;-38
2021/05/27 09:56:43;;;;;;;2.65;1.42;;;10.90;99.90;;;;;;12384224;28;20575;-39
2021/05/27 10:02:45;;;;;;;2.40;1.20;;;10.90;99.90;;;;;;12389166;28;20389;-39
2021/05/27 10:08:55;;;;;;;2.22;1.33;;;10.90;99.90;;;;;;12389385;28;20110;-39
2021/05/27 10:15:01;;;;;;;3.88;2.05;;;10.90;99.90;;;;;;12386685;28;20077;-39
2021/05/27 10:21:04;;;;;;;3.42;1.90;;;10.90;99.90;;;;;;12386875;28;20042;-39
2021/05/27 10:27:06;;;;;;;3.70;2.00;;;10.90;99.90;;;;;;12385157;28;20087;-39
2021/05/27 10:33:16;;;;;;;3.33;1.88;;;11.00;99.90;;;;;;12375613;28;20054;-39
2021/05/27 10:39:37;;;;;;;3.78;1.80;;;11.10;99.90;;;;;;12382965;28;20054;-39
2021/05/27 10:45:57;;;;;;;3.42;1.60;;;11.10;99.90;;;;;;12382731;28;20102;-39
2021/05/27 10:52:24;;;;;;;2.92;2.15;;;11.20;99.90;;;;;;12371079;28;20112;-39
2021/05/27 10:58:45;;;;;;;2.75;1.65;;;11.30;99.90;;;;;;12372198;28;20062;-39
2021/05/27 11:04:47;;;;;;;2.75;1.60;;;11.40;99.90;;;;;;12374378;28;20169;-39
2021/05/27 11:10:49;;;;;;;4.88;1.83;;;11.60;99.90;;;;;;12377402;28;20111;-39
2021/05/27 11:23:10;;;;;;;2.80;1.80;;;11.30;99.90;;;;;;12379702;28;20081;-40
2021/05/27 11:29:13;;;;;;;2.75;1.80;;;11.00;99.90;;;;;;12377255;28;20058;-39
2021/05/27 11:35:18;;;;;;;4.10;1.88;;;11.30;99.90;;;;;;12383981;28;20486;-39
2021/05/27 11:41:20;;;;;;;3.17;1.70;;;11.60;99.90;;;;;;12383601;28;20070;-39
2021/05/27 11:47:22;;;;;;;3.70;1.60;;;11.70;99.90;;;;;;12383287;28;20042;-39
2021/05/27 11:53:24;;;;;;;4.93;1.80;;;12.00;99.90;;;;;;12379458;28;20062;-39
2021/05/27 11:59:26;;;;;;;2.95;1.80;;;12.10;99.90;;;;;;12382569;28;20050;-39
2021/05/27 12:05:29;;;;;;;3.33;1.80;;;12.90;99.90;;;;;;12384393;28;20092;-40
2021/05/27 12:11:32;;;;;;;4.15;1.98;;;13.20;99.90;;;;;;12385121;28;20042;-39
2021/05/27 12:17:38;;;;;;;3.13;1.98;;;12.70;99.90;;;;;;12392253;28;20145;-39
2021/05/27 12:23:42;;;;;;;3.22;2.05;;;12.80;99.90;;;;;;12395695;28;20311;-39
2021/05/27 12:29:44;;;;;;;3.22;2.30;;;12.80;99.90;;;;;;12388002;28;20046;-39
2021/05/27 12:35:46;;;;;;;4.80;2.10;;;13.30;99.90;;;;;;12440293;28;20079;-40
2021/05/27 12:41:51;;;;;;;3.95;2.40;;;13.60;99.90;;;;;;12426571;28;20970;-39
2021/05/27 12:48:12;;;;;;;3.33;2.00;;;13.30;99.90;;;;;;12387671;28;20441;-39
2021/05/27 12:54:22;;;;;;;4.38;2.25;;;13.30;99.90;;;;;;12373279;28;20054;-39
2021/05/27 13:00:24;;;;;;;3.58;2.00;;;13.50;99.90;;;;;;12394519;28;20058;-38
2021/05/27 13:06:33;;;;;;;4.93;2.13;;;13.50;99.90;;;;;;12385614;28;20049;-39
2021/05/27 13:12:45;;;;;;;2.92;1.50;;;13.40;99.90;;;;;;12388166;28;20042;-40
2021/05/27 13:18:50;;;;;;;2.95;1.75;;;13.10;99.90;;;;;;12388842;28;20042;-39
2021/05/27 13:24:59;;;;;;;3.03;1.70;;;12.80;99.90;;;;;;12381318;28;20103;-39
2021/05/27 13:31:01;;;;;;;2.72;1.40;;;12.80;99.90;;;;;;12387614;28;20049;-39
2021/05/27 13:37:03;;;;;;;5.38;1.60;;;12.70;99.90;;;;;;12380643;28;20060;-40
2021/05/27 13:43:08;;;;;;;3.28;1.83;;;12.80;99.90;;;;;;12385723;28;20561;-38
2021/05/27 13:49:09;;;;;;;3.78;2.42;;;12.70;99.90;;;;;;12390103;28;20474;-39
2021/05/27 13:55:17;;;;;;;6.18;2.50;;;12.40;99.90;;;;;;12378456;28;20054;-39
2021/05/27 14:01:21;;;;;;;3.95;2.67;;;12.30;99.90;;;;;;12383563;28;20099;-39
2021/05/27 14:07:23;;;;;;;;;;;12.10;99.90;;;;;;12383089;28;20061;-39
2021/05/27 14:13:25;;;;;;;4.85;2.78;;;12.30;99.90;;;;;;12387042;28;20102;-41
2021/05/27 14:19:28;;;;;;;5.28;2.80;;;12.50;99.90;;;;;;12380521;28;20103;-39
2021/05/27 14:25:30;;;;;;;4.22;2.10;;;13.10;99.90;;;;;;12374098;28;20065;-38
2021/05/27 14:31:32;;;;;;;4.85;1.75;;;13.50;99.90;;;;;;12379921;28;20129;-39
2021/05/27 14:37:35;;;;;;;4.07;1.85;;;13.60;99.90;;;;;;12379541;28;20145;-40
2021/05/27 14:43:38;;;;;;;3.42;1.98;;;13.50;99.90;;;;;;12377442;28;20133;-39
2021/05/27 14:49:40;;;;;;;3.30;1.85;;;13.10;99.90;;;;;;12380451;28;20066;-41
2021/05/27 14:55:42;;;;;;;4.53;2.20;;;12.80;99.90;;;;;;12377677;28;20140;-39
2021/05/27 15:01:44;;;;;;;4.32;2.47;;;12.70;99.90;;;;;;12376129;28;20065;-39
2021/05/27 15:07:46;;;;;;;5.07;2.10;;;12.60;99.90;;;;;;12376715;28;20974;-39
2021/05/27 15:13:48;;;;;;;4.00;2.08;;;12.40;99.90;;;;;;12379521;28;20076;-38
2021/05/27 15:19:50;;;;;;;5.15;2.67;;;12.30;99.90;;;;;;12376212;28;20054;-39
2021/05/27 15:25:52;;;;;;;7.70;3.03;;;12.20;99.90;;;;;;12375325;28;20045;-39
2021/05/27 15:31:54;;;;;;;6.03;2.63;;;12.30;99.90;;;;;;12373247;28;20088;-40
2021/05/27 15:37:56;;;;;;;3.95;1.60;;;12.40;99.90;;;;;;12372907;28;20471;-39
2021/05/27 15:43:58;;;;;;;5.78;2.15;;;12.30;99.90;;;;;;12375286;28;20537;-40
2021/05/27 15:49:59;;;;;;;2.95;1.08;;;12.30;99.90;;;;;;12371505;28;20917;-40
2021/05/27 15:56:01;;;;;;;3.55;1.40;;;12.40;99.90;;;;;;12424671;28;20227;-39
2021/05/27 16:02:04;;;;;;;2.80;1.27;;;12.40;99.90;;;;;;12423639;28;21086;-39
2021/05/27 16:08:07;;;;;;;4.05;1.20;;;12.20;99.90;;;;;;12422786;28;20549;-39
2021/05/27 16:14:10;;;;;;;2.60;1.10;;;12.20;99.90;;;;;;12427187;28;20053;-40
2021/05/27 16:20:12;;;;;;;1.60;0.80;;;11.90;99.90;;;;;;12421081;28;20068;-39
2021/05/27 16:26:14;;;;;;;3.30;1.00;;;11.90;99.90;;;;;;12424529;28;20052;-39
2021/05/27 16:32:16;;;;;;;3.35;0.93;;;11.90;99.90;;;;;;12419096;28;20037;-39
2021/05/27 16:38:24;;;;;;;2.83;1.02;;;11.80;99.90;;;;;;12430654;28;20644;-39
2021/05/27 16:44:26;;;;;;;4.25;1.10;;;11.80;99.90;;;;;;12417616;28;20049;-39
2021/05/27 16:50:28;;;;;;;3.60;1.20;;;11.90;99.90;;;;;;12423113;28;20652;-39
2021/05/27 16:56:30;;;;;;;3.22;1.20;;;11.80;99.90;;;;;;12416214;28;20146;-39
2021/05/27 17:02:32;;;;;;;5.65;1.92;;;11.70;99.90;;;;;;12425829;28;20050;-39
2021/05/27 17:08:34;;;;;;;5.22;1.83;;;11.70;99.90;;;;;;12429021;28;20144;-39
2021/05/27 17:14:36;;;;;;;3.47;1.77;;;11.70;99.90;;;;;;12423736;28;20095;-39
2021/05/27 17:20:39;;;;;;;3.60;2.25;;;11.60;99.90;;;;;;12427761;28;20058;-38
2021/05/27 17:26:42;;;;;;;7.72;2.40;;;11.40;99.90;;;;;;12431124;28;20053;-39
2021/05/27 17:32:44;;;;;;;5.32;2.08;;;11.40;99.90;;;;;;12416204;28;20049;-39
2021/05/27 17:38:46;;;;;;;3.80;1.85;;;11.70;99.90;;;;;;12425934;28;20111;-41
2021/05/27 17:44:48;;;;;;;4.43;2.10;;;11.80;99.90;;;;;;12420773;28;20558;-40
2021/05/27 17:50:51;;;;;;;5.88;1.60;;;12.60;99.90;;;;;;12420789;28;20095;-39
2021/05/27 17:56:53;;;;;;;4.53;1.90;;;13.90;99.90;;;;;;12423754;28;20567;-39
2021/05/27 18:02:55;;;;;;;7.93;2.10;;;14.10;99.90;;;;;;12422980;28;21034;-39
2021/05/27 18:08:58;;;;;;;5.50;1.98;;;13.50;99.90;;;;;;12429920;28;20440;-38
2021/05/27 18:14:59;;;;;;;5.65;1.90;;;13.50;99.90;;;;;;12414355;28;20496;-39
2021/05/27 18:21:01;;;;;;;4.95;1.80;;;13.10;99.90;;;;;;12424689;28;20049;-40
2021/05/27 18:27:03;;;;;;;6.43;2.13;;;12.60;99.90;;;;;;12432200;28;20084;-39
2021/05/27 18:33:06;;;;;;;9.48;2.72;;;12.30;99.90;;;;;;12427360;28;20103;-40
2021/05/27 18:39:09;;;;;;;6.22;2.25;;;12.10;99.90;;;;;;12424150;28;20095;-39
2021/05/27 18:45:11;;;;;;;6.10;2.50;;;12.00;99.90;;;;;;12422056;28;20523;-39
2021/05/27 18:51:13;;;;;;;8.90;2.78;;;11.80;99.90;;;;;;12425556;28;20046;-38
2021/05/27 18:57:15;;;;;;;6.10;2.90;;;11.70;99.90;;;;;;12419579;28;20111;-39
2021/05/27 19:03:18;;;;;;;5.85;2.88;;;11.70;99.90;;;;;;12428012;28;20095;-39
2021/05/27 19:09:21;;;;;;;11.35;3.13;;;11.80;99.90;;;;;;12422437;28;20053;-39
2021/05/27 19:15:24;;;;;;;5.37;2.63;;;11.80;99.90;;;;;;12420426;28;20592;-39
2021/05/27 19:21:27;;;;;;;7.80;2.75;;;11.60;99.90;;;;;;12421578;28;20126;-39
2021/05/27 19:27:30;;;;;;;9.65;3.15;;;11.60;99.90;;;;;;12421641;28;20057;-39
2021/05/27 19:33:31;;;;;;;13.98;3.50;;;11.50;99.90;;;;;;12423801;28;20045;-40
2021/05/27 19:39:33;;;;;;;8.50;2.95;;;11.50;99.90;;;;;;12420600;28;20435;-39
2021/05/27 19:45:37;;;;;;;8.05;3.28;;;11.40;99.90;;;;;;12425818;28;20053;-40
2021/05/27 19:51:39;;;;;;;7.27;3.13;;;11.30;99.90;;;;;;12427225;28;20222;-39
2021/05/27 19:57:41;;;;;;;8.90;3.40;;;11.30;99.90;;;;;;12420269;28;20053;-39
2021/05/27 20:03:43;;;;;;;7.93;3.50;;;11.10;99.90;;;;;;12427869;28;20057;-39
2021/05/27 20:09:45;;;;;;;10.73;4.43;;;11.10;99.90;;;;;;12425960;28;20045;-41
2021/05/27 20:15:49;;;;;;;11.65;3.90;;;11.00;99.90;;;;;;12426304;28;20057;-39
2021/05/27 20:21:51;;;;;;;6.47;3.42;;;11.10;99.90;;;;;;12429824;28;20115;-39
2021/05/27 20:27:52;;;;;;;8.52;3.60;;;11.20;99.90;;;;;;12431132;28;20719;-39
2021/05/27 20:33:54;;;;;;;8.07;3.70;;;11.20;99.90;;;;;;12434800;28;20072;-40
2021/05/27 20:39:56;;;;;;;9.38;4.22;;;11.20;99.90;;;;;;12437041;28;20081;-40
2021/05/27 20:45:58;;;;;;;7.35;3.80;;;11.20;99.90;;;;;;12439177;28;20041;-39
2021/05/27 20:52:00;;;;;;;7.25;3.65;;;11.20;99.90;;;;;;12439518;28;20045;-40
2021/05/27 20:58:02;;;;;;;10.52;3.58;;;11.20;99.90;;;;;;12434125;28;20053;-40
2021/05/27 21:04:04;;;;;;;7.70;3.25;;;11.10;99.90;;;;;;12439661;28;20498;-39
2021/05/27 21:10:07;;;;;;;11.90;3.45;;;11.20;99.90;;;;;;12433224;28;21150;-39
2021/05/27 21:16:09;;;;;;;9.90;4.05;;;11.00;99.90;;;;;;12435092;28;20154;-39
2021/05/27 21:22:11;;;;;;;14.18;4.00;;;11.00;99.90;;;;;;12437901;28;20096;-39
2021/05/27 21:28:13;;;;;;;9.48;3.38;;;11.00;99.90;;;;;;12440844;28;20041;-39
2021/05/27 21:34:15;;;;;;;7.60;3.25;;;11.10;99.90;;;;;;12431858;28;20046;-39
2021/05/27 21:40:18;;;;;;;6.10;2.60;;;11.00;99.90;;;;;;12434537;28;20046;-38
2021/05/27 21:46:21;;;;;;;8.15;2.88;;;10.90;99.90;;;;;;12435905;28;20560;-39
2021/05/27 21:52:23;;;;;;;13.68;3.70;;;10.90;99.90;;;;;;12431884;28;20555;-39
2021/05/27 21:58:25;;;;;;;6.43;3.20;;;10.80;99.90;;;;;;12430992;28;20145;-39
2021/05/27 22:04:27;;;;;;;8.75;3.08;;;10.90;99.90;;;;;;12435395;28;20045;-39
2021/05/27 22:10:29;;;;;;;7.47;2.78;;;10.80;99.90;;;;;;12431872;28;20041;-39
2021/05/27 22:16:33;;;;;;;6.68;2.65;;;10.90;99.90;;;;;;12440865;28;20090;-39
2021/05/27 22:22:35;;;;;;;9.75;3.10;;;10.80;99.90;;;;;;12431033;28;20053;-39
2021/05/27 22:28:39;;;;;;;11.50;3.00;;;10.90;99.90;;;;;;12438870;28;20050;-39
2021/05/27 22:34:41;;;;;;;12.02;3.53;;;10.90;99.90;;;;;;12432794;28;20099;-40
2021/05/27 22:40:43;;;;;;;10.73;2.70;;;10.90;99.90;;;;;;12431590;28;20120;-39
2021/05/27 22:46:45;;;;;;;7.95;2.90;;;10.90;99.90;;;;;;12435518;28;20045;-39
2021/05/27 22:52:47;;;;;;;8.63;2.42;;;10.80;99.90;;;;;;12433142;28;20505;-39
2021/05/27 22:58:49;;;;;;;9.70;2.63;;;10.70;99.90;;;;;;12433395;28;20475;-39
2021/05/27 23:04:51;;;;;;;9.00;2.95;;;10.70;99.90;;;;;;12430795;28;20594;-39
2021/05/27 23:10:53;;;;;;;9.43;2.58;;;10.70;99.90;;;;;;12436822;28;20049;-39
2021/05/27 23:16:55;;;;;;;13.05;2.67;;;10.70;99.90;;;;;;12436238;28;20045;-39
2021/05/27 23:22:57;;;;;;;7.65;2.70;;;10.80;99.90;;;;;;12428422;28;20045;-39
2021/05/27 23:28:58;;;;;;;7.85;2.80;;;10.80;99.90;;;;;;12427999;28;20049;-39
2021/05/27 23:35:00;;;;;;;11.07;3.03;;;10.80;99.90;;;;;;12426780;28;20057;-39
2021/05/27 23:41:02;;;;;;;14.15;3.72;;;10.80;99.90;;;;;;12423253;28;20053;-39
2021/05/27 23:47:04;;;;;;;11.82;3.35;;;10.60;99.90;;;;;;12427217;28;20065;-39
2021/05/27 23:53:06;;;;;;;12.40;2.85;;;10.60;99.90;;;;;;12424208;28;20061;-39
2021/05/27 23:59:08;;;;;;;10.10;3.00;;;10.50;99.90;;;;;;12426020;28;20111;-39
